createdAt,value
2017-10-10T00:00:00.570Z,89.30
2017-10-10T00:02:28.889Z,89.58
2017-10-10T00:04:57.202Z,89.46
2017-10-10T00:07:25.522Z,88.86
2017-10-10T00:09:54.622Z,89.14
2017-10-10T00:12:23.722Z,89.19
2017-10-10T00:14:52.794Z,89.01
2017-10-10T00:17:21.135Z,89.25
2017-10-10T00:19:49.453Z,89.10
2017-10-10T00:22:17.777Z,88.99
2017-10-10T00:24:46.151Z,89.29
2017-10-10T00:27:15.356Z,89.09
2017-10-10T00:29:43.691Z,88.95
2017-10-10T00:32:12.786Z,89.42
2017-10-10T00:34:41.115Z,89.53
2017-10-10T00:37:09.418Z,89.52
2017-10-10T00:39:37.751Z,89.08
2017-10-10T00:42:06.065Z,89.03
2017-10-10T00:44:34.370Z,89.09
2017-10-10T00:47:02.703Z,88.92
2017-10-10T00:49:31.017Z,88.96
2017-10-10T00:51:59.350Z,88.95
2017-10-10T00:54:27.665Z,89.20
2017-10-10T00:56:56.065Z,89.07
2017-10-10T00:59:25.146Z,89.06
2017-10-10T01:01:53.485Z,89.42
2017-10-10T01:04:21.785Z,89.32
2017-10-10T01:06:50.099Z,89.37
2017-10-10T01:09:19.194Z,89.50
2017-10-10T01:11:48.282Z,89.26
2017-10-10T01:14:17.369Z,89.69
2017-10-10T01:16:45.682Z,89.92
2017-10-10T01:19:14.013Z,89.78
2017-10-10T01:21:42.334Z,89.72
2017-10-10T01:24:10.664Z,89.73
2017-10-10T01:26:38.996Z,89.93
2017-10-10T01:29:07.322Z,90.02
2017-10-10T01:31:35.657Z,90.30
2017-10-10T01:34:03.981Z,89.95
2017-10-10T01:36:32.314Z,89.94
2017-10-10T01:39:00.618Z,90.00
2017-10-10T01:41:28.935Z,90.05
2017-10-10T01:43:58.009Z,89.78
2017-10-10T01:46:26.325Z,90.02
2017-10-10T01:48:54.631Z,90.21
2017-10-10T01:51:22.929Z,89.76
2017-10-10T01:53:51.273Z,89.86
2017-10-10T01:56:19.585Z,90.26
2017-10-10T01:58:47.926Z,90.68
2017-10-10T02:01:16.239Z,90.61
2017-10-10T02:03:45.354Z,90.77
2017-10-10T02:06:13.672Z,90.71
2017-10-10T02:08:41.995Z,91.24
2017-10-10T02:11:10.313Z,91.10
2017-10-10T02:13:38.670Z,91.21
2017-10-10T02:16:06.978Z,91.53
2017-10-10T02:18:35.281Z,91.28
2017-10-10T02:21:03.598Z,91.41
2017-10-10T02:23:32.699Z,91.44
2017-10-10T02:26:01.793Z,91.60
2017-10-10T02:28:30.882Z,91.49
2017-10-10T02:31:00.026Z,91.57
2017-10-10T02:33:28.349Z,91.85
2017-10-10T02:35:56.681Z,91.68
2017-10-10T02:38:24.999Z,91.57
2017-10-10T02:40:53.327Z,91.47
2017-10-10T02:43:21.703Z,91.55
2017-10-10T02:45:50.035Z,91.62
2017-10-10T02:48:18.361Z,91.16
2017-10-10T02:50:46.690Z,90.91
2017-10-10T02:53:15.023Z,90.92
2017-10-10T02:55:43.350Z,91.03
2017-10-10T02:58:11.695Z,91.49
2017-10-10T03:00:40.028Z,91.14
2017-10-10T03:03:09.133Z,91.23
2017-10-10T03:05:37.466Z,91.14
2017-10-10T03:08:05.780Z,91.30
2017-10-10T03:10:34.876Z,91.40
2017-10-10T03:13:03.969Z,91.44
2017-10-10T03:15:33.631Z,91.78
2017-10-10T03:18:01.965Z,91.95
2017-10-10T03:20:30.315Z,91.88
2017-10-10T03:22:58.630Z,92.30
2017-10-10T03:25:26.953Z,92.10
2017-10-10T03:27:55.280Z,92.33
2017-10-10T03:30:23.592Z,92.17
2017-10-10T03:32:51.951Z,92.38
2017-10-10T03:35:20.267Z,92.02
2017-10-10T03:37:48.607Z,92.16
2017-10-10T03:40:16.957Z,92.20
2017-10-10T03:42:46.045Z,92.61
2017-10-10T03:45:15.129Z,92.55
2017-10-10T03:47:43.451Z,92.17
2017-10-10T03:50:11.766Z,92.18
2017-10-10T03:52:40.109Z,92.27
2017-10-10T03:55:08.438Z,92.27
2017-10-10T03:57:36.774Z,92.23
2017-10-10T04:00:05.091Z,92.06
2017-10-10T04:02:33.414Z,92.01
2017-10-10T04:05:01.769Z,91.97
2017-10-10T04:07:30.850Z,92.09
2017-10-10T04:09:59.974Z,92.30
2017-10-10T04:12:28.282Z,91.90
2017-10-10T04:14:56.613Z,91.96
2017-10-10T04:17:25.708Z,91.88
2017-10-10T04:19:54.802Z,91.80
2017-10-10T04:22:23.888Z,91.81
2017-10-10T04:24:52.975Z,91.58
2017-10-10T04:27:21.301Z,91.90
2017-10-10T04:29:49.611Z,91.88
2017-10-10T04:32:17.959Z,91.66
2017-10-10T04:34:46.292Z,91.80
2017-10-10T04:37:15.374Z,91.79
2017-10-10T04:39:43.706Z,91.78
2017-10-10T04:42:12.010Z,91.06
2017-10-10T04:44:40.332Z,90.78
2017-10-10T04:47:09.412Z,91.21
2017-10-10T04:49:38.539Z,91.07
2017-10-10T04:52:06.855Z,91.01
2017-10-10T04:54:35.879Z,90.97
2017-10-10T04:57:04.197Z,90.69
2017-10-10T04:59:32.537Z,90.49
2017-10-10T05:02:01.635Z,90.61
2017-10-10T05:04:30.723Z,90.54
2017-10-10T05:06:59.153Z,90.34
2017-10-10T05:09:27.482Z,90.64
2017-10-10T05:11:55.807Z,91.07
2017-10-10T05:14:24.134Z,91.68
2017-10-10T05:16:52.453Z,92.02
2017-10-10T05:19:20.774Z,91.90
2017-10-10T05:21:49.134Z,91.64
2017-10-10T05:24:17.449Z,91.64
2017-10-10T05:26:45.758Z,91.94
2017-10-10T05:29:14.082Z,91.67
2017-10-10T05:31:42.396Z,91.66
2017-10-10T05:34:11.491Z,91.41
2017-10-10T05:36:40.570Z,91.70
2017-10-10T05:39:08.911Z,92.14
2017-10-10T05:41:37.230Z,92.07
2017-10-10T05:44:06.355Z,92.33
2017-10-10T05:46:34.674Z,92.33
2017-10-10T05:49:02.990Z,92.12
2017-10-10T05:51:32.077Z,92.37
2017-10-10T05:54:00.391Z,92.66
2017-10-10T05:56:28.718Z,92.37
2017-10-10T05:58:57.029Z,92.19
2017-10-10T06:01:25.350Z,92.19
2017-10-10T06:03:53.661Z,92.37
2017-10-10T06:06:22.007Z,92.05
2017-10-10T06:08:50.326Z,91.35
2017-10-10T06:11:19.409Z,91.71
2017-10-10T06:13:47.731Z,91.33
2017-10-10T06:16:16.102Z,91.12
2017-10-10T06:18:45.184Z,91.06
2017-10-10T06:21:14.262Z,90.59
2017-10-10T06:23:43.346Z,90.42
2017-10-10T06:26:11.649Z,89.85
2017-10-10T06:28:40.755Z,89.70
2017-10-10T06:31:09.063Z,89.48
2017-10-10T06:33:37.367Z,89.76
2017-10-10T06:36:05.683Z,89.31
2017-10-10T06:38:33.992Z,89.45
2017-10-10T06:41:02.310Z,88.93
2017-10-10T06:43:30.627Z,89.56
2017-10-10T06:45:58.946Z,88.84
2017-10-10T06:48:27.263Z,89.27
2017-10-10T06:50:56.362Z,89.86
2017-10-10T06:53:24.666Z,89.80
2017-10-10T06:55:53.774Z,89.65
2017-10-10T06:58:22.076Z,89.38
2017-10-10T07:00:50.391Z,89.27
2017-10-10T07:03:18.711Z,89.32
2017-10-10T07:05:47.044Z,88.96
2017-10-10T07:08:15.488Z,89.64
2017-10-10T07:10:43.789Z,89.08
2017-10-10T07:13:12.876Z,89.64
2017-10-10T07:15:41.959Z,89.12
2017-10-10T07:18:10.297Z,88.91
2017-10-10T07:20:38.607Z,88.52
2017-10-10T07:23:06.929Z,88.80
2017-10-10T07:25:35.262Z,88.45
2017-10-10T07:28:03.598Z,87.72
2017-10-10T07:30:31.907Z,88.36
2017-10-10T07:33:00.235Z,87.52
2017-10-10T07:35:28.636Z,86.84
2017-10-10T07:37:56.957Z,86.69
2017-10-10T07:40:25.286Z,85.45
2017-10-10T07:42:53.608Z,85.17
2017-10-10T07:45:21.957Z,85.24
2017-10-10T07:47:50.274Z,85.42
2017-10-10T07:50:18.626Z,85.26
2017-10-10T07:52:46.948Z,85.44
2017-10-10T07:55:16.040Z,85.24
2017-10-10T07:57:45.128Z,83.72
2017-10-10T08:00:14.194Z,83.47
2017-10-10T08:02:42.514Z,82.88
2017-10-10T08:05:11.585Z,83.09
2017-10-10T08:07:39.905Z,82.49
2017-10-10T08:10:08.213Z,80.72
2017-10-10T08:12:36.634Z,80.59
2017-10-10T08:15:05.726Z,81.29
2017-10-10T08:17:34.038Z,82.33
2017-10-10T08:20:02.355Z,82.46
2017-10-10T08:22:30.695Z,83.11
2017-10-10T08:24:59.041Z,83.94
2017-10-10T08:27:28.109Z,84.25
2017-10-10T08:29:56.418Z,84.70
2017-10-10T08:32:25.492Z,84.66
2017-10-10T08:34:53.851Z,84.83
2017-10-10T08:37:22.163Z,85.20
2017-10-10T08:39:51.240Z,85.06
2017-10-10T08:42:19.675Z,84.51
2017-10-10T08:44:47.986Z,84.15
2017-10-10T08:47:16.323Z,84.22
2017-10-10T08:49:44.632Z,84.50
2017-10-10T08:52:13.001Z,83.81
2017-10-10T08:54:41.329Z,84.35
2017-10-10T08:57:09.694Z,83.73
2017-10-10T08:59:38.043Z,82.44
2017-10-10T09:02:06.354Z,81.86
2017-10-10T09:04:34.674Z,81.95
2017-10-10T09:07:02.989Z,82.73
2017-10-10T09:09:31.319Z,82.10
2017-10-10T09:11:59.630Z,82.04
2017-10-10T09:14:27.950Z,81.17
2017-10-10T09:16:57.025Z,80.58
2017-10-10T09:19:25.337Z,80.07
2017-10-10T09:21:53.647Z,80.83
2017-10-10T09:24:21.958Z,80.53
2017-10-10T09:26:50.283Z,82.24
2017-10-10T09:29:18.597Z,82.31
2017-10-10T09:31:46.909Z,82.24
2017-10-10T09:34:15.234Z,80.96
2017-10-10T09:36:43.562Z,79.67
2017-10-10T09:39:12.645Z,79.01
2017-10-10T09:41:40.962Z,78.94
2017-10-10T09:44:09.270Z,78.91
2017-10-10T09:46:37.625Z,78.55
2017-10-10T09:49:05.943Z,76.28
2017-10-10T09:51:34.263Z,74.50
2017-10-10T09:54:02.583Z,73.89
2017-10-10T09:56:30.892Z,75.58
2017-10-10T09:58:59.234Z,77.31
2017-10-10T10:01:27.542Z,78.49
2017-10-10T10:03:55.875Z,78.61
2017-10-10T10:06:24.186Z,78.90
2017-10-10T10:08:52.534Z,79.16
2017-10-10T10:11:20.847Z,79.38
2017-10-10T10:13:49.170Z,79.25
2017-10-10T10:16:17.533Z,78.99
2017-10-10T10:18:46.598Z,78.97
2017-10-10T10:21:14.920Z,79.45
2017-10-10T10:23:43.234Z,79.37
2017-10-10T10:26:11.550Z,79.04
2017-10-10T10:28:40.625Z,79.14
2017-10-10T10:31:08.949Z,79.26
2017-10-10T10:33:37.264Z,81.12
2017-10-10T10:36:05.599Z,81.87
2017-10-10T10:38:33.919Z,82.76
2017-10-10T10:41:02.232Z,82.35
2017-10-10T10:43:31.315Z,83.11
2017-10-10T10:46:00.402Z,83.21
2017-10-10T10:48:28.727Z,82.61
2017-10-10T10:50:57.033Z,82.82
2017-10-10T10:53:25.363Z,82.36
2017-10-10T10:55:54.459Z,83.53
2017-10-10T10:58:22.778Z,82.82
2017-10-10T11:00:51.099Z,81.31
2017-10-10T11:03:20.195Z,82.57
2017-10-10T11:05:49.332Z,80.57
2017-10-10T11:08:17.633Z,81.34
2017-10-10T11:10:45.974Z,81.17
2017-10-10T11:13:14.290Z,81.55
2017-10-10T11:15:42.619Z,81.99
2017-10-10T11:18:10.939Z,82.27
2017-10-10T11:20:39.284Z,81.86
2017-10-10T11:23:07.586Z,82.59
2017-10-10T11:25:35.911Z,82.34
2017-10-10T11:28:04.239Z,83.04
2017-10-10T11:30:32.553Z,83.88
2017-10-10T11:33:00.883Z,83.82
2017-10-10T11:35:29.199Z,84.08
2017-10-10T11:37:57.517Z,83.78
2017-10-10T11:40:25.831Z,82.83
2017-10-10T11:42:54.184Z,82.58
2017-10-10T11:45:22.495Z,83.85
2017-10-10T11:47:50.810Z,83.30
2017-10-10T11:50:19.893Z,83.23
2017-10-10T11:52:48.210Z,83.04
2017-10-10T11:55:16.534Z,82.46
2017-10-10T11:57:44.976Z,82.23
2017-10-10T12:00:13.282Z,81.55
2017-10-10T12:02:41.587Z,81.42
2017-10-10T12:05:10.714Z,82.12
2017-10-10T12:07:39.026Z,81.94
2017-10-10T12:10:08.111Z,82.91
2017-10-10T12:12:36.459Z,82.48
2017-10-10T12:15:04.776Z,82.53
2017-10-10T12:17:33.098Z,82.94
2017-10-10T12:20:02.195Z,82.99
2017-10-10T12:22:31.270Z,82.43
2017-10-10T12:24:59.579Z,82.36
2017-10-10T12:27:27.923Z,81.67
2017-10-10T12:29:56.234Z,82.03
2017-10-10T12:32:24.546Z,81.51
2017-10-10T12:34:52.850Z,81.56
2017-10-10T12:37:21.150Z,82.59
2017-10-10T12:39:49.474Z,82.15
2017-10-10T12:42:17.771Z,82.18
2017-10-10T12:44:46.101Z,81.86
2017-10-10T12:47:15.142Z,82.47
2017-10-10T12:49:43.450Z,83.10
2017-10-10T12:52:12.530Z,83.17
2017-10-10T12:54:40.847Z,83.71
2017-10-10T12:57:09.150Z,83.78
2017-10-10T12:59:37.458Z,84.03
2017-10-10T13:02:05.778Z,83.36
2017-10-10T13:04:34.075Z,83.15
2017-10-10T13:07:02.393Z,82.54
2017-10-10T13:09:30.707Z,83.93
2017-10-10T13:11:59.013Z,83.27
2017-10-10T13:14:27.338Z,83.02
2017-10-10T13:16:56.445Z,81.89
2017-10-10T13:19:25.517Z,82.37
2017-10-10T13:21:53.842Z,81.92
2017-10-10T13:24:22.162Z,82.24
2017-10-10T13:26:50.469Z,81.75
2017-10-10T13:29:19.546Z,82.73
2017-10-10T13:31:47.867Z,81.94
2017-10-10T13:34:16.189Z,81.14
2017-10-10T13:36:44.530Z,80.40
2017-10-10T13:39:12.859Z,80.59
2017-10-10T13:41:41.169Z,79.86
2017-10-10T13:44:09.474Z,78.86
2017-10-10T13:46:37.791Z,78.41
2017-10-10T13:49:06.946Z,76.72
2017-10-10T13:51:35.273Z,76.91
2017-10-10T13:54:04.352Z,78.47
2017-10-10T13:56:32.698Z,79.08
2017-10-10T13:59:01.015Z,79.52
2017-10-10T14:01:30.129Z,79.26
2017-10-10T14:03:59.218Z,78.53
2017-10-10T14:06:28.332Z,77.31
2017-10-10T14:08:56.639Z,75.92
2017-10-10T14:11:25.039Z,74.89
2017-10-10T14:13:53.354Z,74.24
2017-10-10T14:16:22.432Z,74.53
2017-10-10T14:18:50.757Z,74.67
2017-10-10T14:21:19.061Z,75.61
2017-10-10T14:23:47.392Z,76.09
2017-10-10T14:26:15.741Z,76.32
2017-10-10T14:28:44.097Z,76.07
2017-10-10T14:31:12.415Z,76.67
2017-10-10T14:33:41.498Z,77.08
2017-10-10T14:36:10.596Z,77.26
2017-10-10T14:38:39.670Z,77.74
2017-10-10T14:41:07.990Z,77.38
2017-10-10T14:43:36.294Z,77.43
2017-10-10T14:46:04.626Z,77.92
2017-10-10T14:48:33.820Z,78.20
2017-10-10T14:51:02.926Z,78.36
2017-10-10T14:53:31.994Z,78.47
2017-10-10T14:56:00.306Z,78.70
2017-10-10T14:58:29.390Z,78.90
2017-10-10T15:00:58.464Z,79.26
2017-10-10T15:03:26.779Z,79.17
2017-10-10T15:05:55.085Z,79.23
2017-10-10T15:08:23.446Z,79.71
2017-10-10T15:10:51.762Z,79.89
2017-10-10T15:13:20.115Z,79.69
2017-10-10T15:15:48.421Z,79.73
2017-10-10T15:18:16.737Z,79.85
2017-10-10T15:20:45.813Z,80.15
2017-10-10T15:23:14.156Z,80.28
2017-10-10T15:25:42.485Z,80.55
2017-10-10T15:28:11.593Z,80.69
2017-10-10T15:30:39.916Z,80.45
2017-10-10T15:33:08.223Z,80.81
2017-10-10T15:35:37.349Z,80.92
2017-10-10T15:38:05.654Z,80.56
2017-10-10T15:40:33.983Z,80.86
2017-10-10T15:43:03.075Z,80.41
2017-10-10T15:45:32.244Z,80.57
2017-10-10T15:48:00.570Z,81.02
2017-10-10T15:50:28.882Z,80.71
2017-10-10T15:52:57.197Z,80.32
2017-10-10T15:55:26.298Z,80.90
2017-10-10T15:57:55.405Z,80.84
2017-10-10T16:00:24.483Z,81.38
2017-10-10T16:02:53.570Z,81.42
2017-10-10T16:05:21.885Z,81.57
2017-10-10T16:07:50.202Z,81.48
2017-10-10T16:10:18.518Z,81.47
2017-10-10T16:12:47.593Z,81.29
2017-10-10T16:15:15.914Z,81.24
2017-10-10T16:17:44.223Z,81.48
2017-10-10T16:20:13.338Z,82.34
2017-10-10T16:22:41.676Z,84.08
2017-10-10T16:25:09.997Z,85.51
2017-10-10T16:27:38.320Z,87.11
2017-10-10T16:30:06.637Z,87.61
2017-10-10T16:32:34.954Z,88.12
2017-10-10T16:35:04.038Z,88.26
2017-10-10T16:37:33.157Z,88.58
2017-10-10T16:40:01.466Z,87.91
2017-10-10T16:42:29.780Z,87.87
2017-10-10T16:44:58.100Z,88.21
2017-10-10T16:47:26.423Z,88.29
2017-10-10T16:49:54.742Z,88.25
2017-10-10T16:54:57.701Z,88.22
2017-10-10T16:57:26.012Z,87.68
2017-10-10T16:59:55.139Z,87.63
2017-10-10T17:02:23.454Z,87.33
2017-10-10T17:04:51.762Z,87.32
2017-10-10T17:07:20.859Z,86.74
2017-10-10T17:09:49.940Z,86.71
2017-10-10T17:12:18.260Z,86.48
2017-10-10T17:14:46.578Z,86.01
2017-10-10T17:17:15.629Z,85.83
2017-10-10T17:19:43.942Z,86.13
2017-10-10T17:22:12.261Z,85.89
2017-10-10T17:24:41.333Z,85.63
2017-10-10T17:27:09.691Z,86.12
2017-10-10T17:29:38.001Z,86.09
2017-10-10T17:32:07.074Z,86.25
2017-10-10T17:34:35.409Z,86.32
2017-10-10T17:37:03.740Z,86.09
2017-10-10T17:39:32.073Z,86.09
2017-10-10T17:42:00.395Z,86.11
2017-10-10T17:44:28.714Z,86.17
2017-10-10T17:46:57.026Z,86.14
2017-10-10T17:49:25.382Z,86.20
2017-10-10T17:51:53.715Z,86.14
2017-10-10T17:54:22.794Z,86.03
2017-10-10T17:56:51.110Z,85.96
2017-10-10T17:59:19.430Z,85.68
2017-10-10T18:01:47.757Z,85.87
2017-10-10T18:04:16.834Z,85.50
2017-10-10T18:06:45.160Z,85.76
2017-10-10T18:09:13.476Z,85.70
2017-10-10T18:11:41.827Z,85.35
2017-10-10T18:14:10.143Z,85.32
2017-10-10T18:16:39.254Z,85.43
2017-10-10T18:19:08.338Z,85.46
2017-10-10T18:21:37.433Z,85.41
2017-10-10T18:24:06.523Z,85.04
2017-10-10T18:26:34.839Z,85.04
2017-10-10T18:29:03.159Z,84.86
2017-10-10T18:31:31.466Z,84.87
2017-10-10T18:34:00.554Z,84.81
2017-10-10T18:36:29.636Z,84.65
2017-10-10T18:38:57.999Z,84.70
2017-10-10T18:41:26.321Z,84.38
2017-10-10T18:43:55.393Z,84.15
2017-10-10T18:46:24.119Z,83.98
2017-10-10T18:48:52.510Z,83.89
2017-10-10T18:51:20.830Z,83.59
2017-10-10T18:53:49.139Z,83.59
2017-10-10T18:56:19.034Z,83.80
2017-10-10T18:58:47.356Z,83.82
2017-10-10T19:01:15.699Z,83.72
2017-10-10T19:03:44.778Z,83.73
2017-10-10T19:06:13.085Z,83.80
2017-10-10T19:08:42.302Z,83.80
2017-10-10T19:11:10.638Z,83.85
2017-10-10T19:13:38.971Z,83.87
2017-10-10T19:16:07.279Z,84.02
2017-10-10T19:18:35.594Z,83.92
2017-10-10T19:21:04.123Z,83.81
2017-10-10T19:23:32.514Z,83.56
2017-10-10T19:26:00.833Z,83.25
2017-10-10T19:28:29.153Z,83.29
2017-10-10T19:30:57.542Z,83.39
2017-10-10T19:33:25.858Z,83.31
2017-10-10T19:35:54.946Z,83.32
2017-10-10T19:38:24.026Z,83.47
2017-10-10T19:40:52.351Z,83.04
2017-10-10T19:43:21.031Z,83.20
2017-10-10T19:45:49.385Z,83.13
2017-10-10T19:48:18.517Z,83.24
2017-10-10T19:50:46.830Z,83.16
2017-10-10T19:53:15.360Z,83.25
2017-10-10T19:55:43.675Z,83.03
2017-10-10T19:58:12.002Z,82.96
2017-10-10T20:00:41.086Z,82.92
2017-10-10T20:03:10.195Z,83.15
2017-10-10T20:05:38.509Z,83.11
2017-10-10T20:08:06.814Z,83.39
2017-10-10T20:10:35.138Z,83.40
2017-10-10T20:13:03.448Z,83.54
2017-10-10T20:15:31.836Z,83.63
2017-10-10T20:18:00.153Z,83.70
2017-10-10T20:20:29.237Z,83.54
2017-10-10T20:22:58.323Z,83.57
2017-10-10T20:25:26.654Z,83.44
2017-10-10T20:27:54.978Z,83.69
2017-10-10T20:30:23.323Z,83.69
2017-10-10T20:32:51.630Z,83.60
2017-10-10T20:35:19.937Z,83.68
2017-10-10T20:37:48.266Z,83.33
2017-10-10T20:40:16.564Z,83.21
2017-10-10T20:42:44.886Z,83.48
2017-10-10T20:45:13.190Z,83.37
2017-10-10T20:47:42.296Z,83.44
2017-10-10T20:50:10.644Z,83.26
2017-10-10T20:52:38.954Z,83.49
2017-10-10T20:55:07.283Z,83.44
2017-10-10T20:57:35.594Z,83.57
2017-10-10T21:00:04.683Z,83.55
2017-10-10T21:02:33.765Z,83.81
2017-10-10T21:05:02.084Z,83.53
2017-10-10T21:07:30.382Z,83.39
2017-10-10T21:09:58.694Z,83.31
2017-10-10T21:12:26.998Z,83.29
2017-10-10T21:14:55.314Z,83.07
2017-10-10T21:17:23.613Z,83.08
2017-10-10T21:19:51.946Z,83.20
2017-10-10T21:22:20.252Z,83.29
2017-10-10T21:24:48.573Z,83.53
2017-10-10T21:27:17.649Z,83.97
2017-10-10T21:29:45.951Z,84.35
2017-10-10T21:32:15.032Z,84.41
2017-10-10T21:34:44.116Z,84.37
2017-10-10T21:37:12.430Z,84.72
2017-10-10T21:39:40.745Z,84.85
2017-10-10T21:42:09.089Z,85.07
2017-10-10T21:44:37.394Z,85.17
2017-10-10T21:47:05.709Z,85.18
2017-10-10T21:49:34.023Z,85.04
2017-10-10T21:52:02.326Z,84.98
2017-10-10T21:54:30.646Z,84.87
2017-10-10T21:56:58.947Z,84.56
2017-10-10T21:59:27.264Z,84.25
2017-10-10T22:01:55.586Z,83.92
2017-10-10T22:04:24.773Z,83.35
2017-10-10T22:06:53.078Z,83.33
2017-10-10T22:09:21.386Z,83.18
2017-10-10T22:11:49.703Z,83.17
2017-10-10T22:14:18.012Z,83.15
2017-10-10T22:16:46.345Z,82.91
2017-10-10T22:19:14.649Z,82.66
2017-10-10T22:21:43.742Z,83.07
2017-10-10T22:24:12.853Z,83.28
2017-10-10T22:26:41.178Z,82.96
2017-10-10T22:29:09.494Z,82.82
2017-10-10T22:31:38.594Z,82.85
2017-10-10T22:34:07.680Z,82.74
2017-10-10T22:36:36.757Z,82.71
2017-10-10T22:39:05.070Z,82.91
2017-10-10T22:41:34.206Z,82.85
2017-10-10T22:44:02.538Z,83.18
2017-10-10T22:46:31.607Z,83.31
2017-10-10T22:48:59.928Z,82.96
2017-10-10T22:51:28.251Z,83.03
2017-10-10T22:53:56.607Z,83.02
2017-10-10T22:56:24.922Z,83.14
2017-10-10T22:58:53.234Z,82.98
2017-10-10T23:01:21.559Z,82.88
2017-10-10T23:03:49.869Z,83.05
2017-10-10T23:06:18.958Z,83.00
2017-10-10T23:08:48.039Z,82.84
2017-10-10T23:11:16.363Z,82.86
2017-10-10T23:13:44.713Z,83.22
2017-10-10T23:16:13.817Z,83.50
2017-10-10T23:18:42.890Z,83.56
2017-10-10T23:21:11.193Z,83.65
2017-10-10T23:23:40.273Z,83.82
2017-10-10T23:26:09.345Z,83.96
2017-10-10T23:28:37.684Z,84.09
2017-10-10T23:31:06.017Z,84.31
2017-10-10T23:33:34.339Z,84.77
2017-10-10T23:36:02.645Z,85.36
2017-10-10T23:38:31.742Z,86.29
2017-10-10T23:41:00.055Z,86.52
2017-10-10T23:43:29.183Z,86.56
2017-10-10T23:45:57.490Z,86.47
2017-10-10T23:48:25.794Z,86.27
2017-10-10T23:50:54.116Z,86.43
2017-10-10T23:53:22.431Z,85.94
2017-10-10T23:55:50.746Z,85.64
2017-10-10T23:58:19.867Z,85.63
